sensor_id;sensor_type;location;lat;lon;timestamp;pressure;altitude;pressure_sealevel;temperature;humidity
44140;BME280;29803;51.048;4.686;2022-11-11T00:00:45;102886.31;;;9.04;100.00
44140;BME280;29803;51.048;4.686;2022-11-11T00:03:16;102894.09;;;9.07;100.00
44140;BME280;29803;51.048;4.686;2022-11-11T00:05:46;102898.41;;;9.10;100.00
44140;BME280;29803;51.048;4.686;2022-11-11T00:08:17;102898.41;;;9.10;100.00
44140;BME280;29803;51.048;4.686;2022-11-11T00:10:47;102899.25;;;9.10;100.00
44140;BME280;29803;51.048;4.686;2022-11-11T00:13:18;102918.00;;;9.10;100.00
44140;BME280;29803;51.048;4.686;2022-11-11T00:15:48;102902.69;;;9.12;100.00
44140;BME280;29803;51.048;4.686;2022-11-11T00:18:18;102908.03;;;9.12;100.00
44140;BME280;29803;51.048;4.686;2022-11-11T00:21:12;102921.34;;;9.14;100.00
44140;BME280;29803;51.048;4.686;2022-11-11T00:24:22;102922.28;;;9.13;100.00
44140;BME280;29803;51.048;4.686;2022-11-11T00:27:13;102913.63;;;9.09;100.00
44140;BME280;29803;51.048;4.686;2022-11-11T00:29:46;102908.56;;;9.04;100.00
44140;BME280;29803;51.048;4.686;2022-11-11T00:32:17;102913.28;;;9.01;100.00
44140;BME280;29803;51.048;4.686;2022-11-11T00:34:54;102913.59;;;8.96;100.00
44140;BME280;29803;51.048;4.686;2022-11-11T00:37:45;102902.22;;;8.93;100.00
44140;BME280;29803;51.048;4.686;2022-11-11T00:40:17;102911.53;;;8.87;100.00
44140;BME280;29803;51.048;4.686;2022-11-11T00:42:48;102917.75;;;8.88;100.00
44140;BME280;29803;51.048;4.686;2022-11-11T00:45:18;102910.56;;;8.88;100.00
44140;BME280;29803;51.048;4.686;2022-11-11T00:47:49;102926.44;;;8.91;100.00
44140;BME280;29803;51.048;4.686;2022-11-11T00:50:38;102926.63;;;8.88;100.00
44140;BME280;29803;51.048;4.686;2022-11-11T00:53:28;102918.53;;;8.90;100.00
44140;BME280;29803;51.048;4.686;2022-11-11T00:55:59;102915.00;;;8.89;100.00
44140;BME280;29803;51.048;4.686;2022-11-11T00:58:30;102926.63;;;8.88;100.00
44140;BME280;29803;51.048;4.686;2022-11-11T01:01:00;102925.47;;;8.92;100.00
44140;BME280;29803;51.048;4.686;2022-11-11T01:03:31;102923.66;;;8.93;100.00
44140;BME280;29803;51.048;4.686;2022-11-11T01:06:02;102919.16;;;8.93;100.00
44140;BME280;29803;51.048;4.686;2022-11-11T01:08:33;102919.81;;;8.97;100.00
44140;BME280;29803;51.048;4.686;2022-11-11T01:11:09;102919.59;;;9.00;100.00
44140;BME280;29803;51.048;4.686;2022-11-11T01:13:41;102925.81;;;9.00;100.00
44140;BME280;29803;51.048;4.686;2022-11-11T01:16:18;102913.41;;;8.99;100.00
44140;BME280;29803;51.048;4.686;2022-11-11T01:18:50;102908.03;;;8.99;100.00
44140;BME280;29803;51.048;4.686;2022-11-11T01:21:22;102914.34;;;8.98;100.00
44140;BME280;29803;51.048;4.686;2022-11-11T01:23:53;102918.94;;;8.96;100.00
44140;BME280;29803;51.048;4.686;2022-11-11T01:26:25;102920.47;;;9.00;100.00
44140;BME280;29803;51.048;4.686;2022-11-11T01:28:56;102915.00;;;9.02;100.00
44140;BME280;29803;51.048;4.686;2022-11-11T01:31:26;102914.34;;;8.98;100.00
44140;BME280;29803;51.048;4.686;2022-11-11T01:33:57;102914.34;;;8.98;100.00
44140;BME280;29803;51.048;4.686;2022-11-11T01:36:27;102911.66;;;8.98;100.00
44140;BME280;29803;51.048;4.686;2022-11-11T01:38:59;102917.34;;;8.94;100.00
44140;BME280;29803;51.048;4.686;2022-11-11T01:41:32;102923.75;;;8.91;100.00
44140;BME280;29803;51.048;4.686;2022-11-11T01:46:48;102926.00;;;8.85;100.00
44140;BME280;29803;51.048;4.686;2022-11-11T01:55:18;102926.09;;;8.83;100.00
44140;BME280;29803;51.048;4.686;2022-11-11T01:57:56;102925.66;;;8.76;100.00
44140;BME280;29803;51.048;4.686;2022-11-11T02:00:29;102924.59;;;8.79;100.00
44140;BME280;29803;51.048;4.686;2022-11-11T02:03:04;102915.91;;;8.75;100.00
44140;BME280;29803;51.048;4.686;2022-11-11T02:05:35;102927.69;;;8.73;100.00
44140;BME280;29803;51.048;4.686;2022-11-11T02:08:20;102927.03;;;8.69;100.00
44140;BME280;29803;51.048;4.686;2022-11-11T02:11:26;102922.00;;;8.65;100.00
44140;BME280;29803;51.048;4.686;2022-11-11T02:14:16;102920.38;;;8.62;100.00
44140;BME280;29803;51.048;4.686;2022-11-11T02:17:11;102918.66;;;8.61;100.00
44140;BME280;29803;51.048;4.686;2022-11-11T02:19:50;102924.00;;;8.61;100.00
44140;BME280;29803;51.048;4.686;2022-11-11T02:25:04;102912.47;;;8.61;100.00
44140;BME280;29803;51.048;4.686;2022-11-11T02:27:38;102910.94;;;8.56;100.00
44140;BME280;29803;51.048;4.686;2022-11-11T02:30:11;102906.38;;;8.59;100.00
44140;BME280;29803;51.048;4.686;2022-11-11T02:32:47;102907.09;;;8.61;100.00
44140;BME280;29803;51.048;4.686;2022-11-11T02:35:32;102907.31;;;8.57;100.00
44140;BME280;29803;51.048;4.686;2022-11-11T02:38:05;102903.69;;;8.59;100.00
44140;BME280;29803;51.048;4.686;2022-11-11T02:40:44;102904.53;;;8.59;100.00
44140;BME280;29803;51.048;4.686;2022-11-11T02:43:35;102901.75;;;8.61;100.00
44140;BME280;29803;51.048;4.686;2022-11-11T02:46:06;102894.59;;;8.61;100.00
44140;BME280;29803;51.048;4.686;2022-11-11T02:48:36;102891.78;;;8.63;100.00
44140;BME280;29803;51.048;4.686;2022-11-11T02:51:07;102891.78;;;8.63;100.00
44140;BME280;29803;51.048;4.686;2022-11-11T02:53:38;102895.88;;;8.68;100.00
44140;BME280;29803;51.048;4.686;2022-11-11T02:56:09;102893.31;;;8.67;100.00
44140;BME280;29803;51.048;4.686;2022-11-11T02:58:39;102895.13;;;8.66;100.00
44140;BME280;29803;51.048;4.686;2022-11-11T03:01:10;102910.44;;;8.64;100.00
44140;BME280;29803;51.048;4.686;2022-11-11T03:03:41;102898.53;;;8.68;100.00
44140;BME280;29803;51.048;4.686;2022-11-11T03:06:12;102903.81;;;8.70;100.00
44140;BME280;29803;51.048;4.686;2022-11-11T03:08:43;102903.81;;;8.70;100.00
44140;BME280;29803;51.048;4.686;2022-11-11T03:11:13;102900.28;;;8.69;100.00
44140;BME280;29803;51.048;4.686;2022-11-11T03:13:49;102903.16;;;8.66;100.00
44140;BME280;29803;51.048;4.686;2022-11-11T03:16:24;102895.31;;;8.63;100.00
44140;BME280;29803;51.048;4.686;2022-11-11T03:19:14;102893.63;;;8.62;100.00
44140;BME280;29803;51.048;4.686;2022-11-11T03:21:44;102892.75;;;8.62;100.00
44140;BME280;29803;51.048;4.686;2022-11-11T03:24:15;102889.13;;;8.63;100.00
44140;BME280;29803;51.048;4.686;2022-11-11T03:26:46;102892.66;;;8.63;100.00
44140;BME280;29803;51.048;4.686;2022-11-11T03:29:16;102902.41;;;8.64;100.00
44140;BME280;29803;51.048;4.686;2022-11-11T03:31:47;102901.56;;;8.64;100.00
44140;BME280;29803;51.048;4.686;2022-11-11T03:34:17;102893.63;;;8.62;100.00
44140;BME280;29803;51.048;4.686;2022-11-11T03:36:47;102899.75;;;8.64;100.00
44140;BME280;29803;51.048;4.686;2022-11-11T03:39:36;102898.13;;;8.62;100.00
44140;BME280;29803;51.048;4.686;2022-11-11T03:42:07;102888.56;;;8.57;100.00
44140;BME280;29803;51.048;4.686;2022-11-11T03:44:37;102895.75;;;8.57;100.00
44140;BME280;29803;51.048;4.686;2022-11-11T03:47:08;102887.84;;;8.55;100.00
44140;BME280;29803;51.048;4.686;2022-11-11T03:49:38;102896.81;;;8.54;100.00
44140;BME280;29803;51.048;4.686;2022-11-11T03:52:09;102890.69;;;8.52;100.00
44140;BME280;29803;51.048;4.686;2022-11-11T03:54:39;102896.81;;;8.54;100.00
44140;BME280;29803;51.048;4.686;2022-11-11T03:57:10;102903.88;;;8.55;100.00
44140;BME280;29803;51.048;4.686;2022-11-11T03:59:59;102908.38;;;8.55;100.00
44140;BME280;29803;51.048;4.686;2022-11-11T04:02:29;102909.03;;;8.59;100.00
44140;BME280;29803;51.048;4.686;2022-11-11T04:05:18;102907.09;;;8.61;100.00
44140;BME280;29803;51.048;4.686;2022-11-11T04:08:12;102902.72;;;8.60;100.00
44140;BME280;29803;51.048;4.686;2022-11-11T04:11:08;102900.03;;;8.60;100.00
44140;BME280;29803;51.048;4.686;2022-11-11T04:13:42;102908.16;;;8.58;100.00
44140;BME280;29803;51.048;4.686;2022-11-11T04:16:32;102908.81;;;8.62;100.00
44140;BME280;29803;51.048;4.686;2022-11-11T04:19:02;102914.16;;;8.62;100.00
44140;BME280;29803;51.048;4.686;2022-11-11T04:21:51;102913.31;;;8.61;100.00
44140;BME280;29803;51.048;4.686;2022-11-11T04:24:22;102912.47;;;8.61;100.00
44140;BME280;29803;51.048;4.686;2022-11-11T04:27:13;102912.66;;;8.57;100.00
44140;BME280;29803;51.048;4.686;2022-11-11T04:29:44;102905.03;;;8.51;100.00
44140;BME280;29803;51.048;4.686;2022-11-11T04:32:21;102915.63;;;8.53;100.00
44140;BME280;29803;51.048;4.686;2022-11-11T04:35:11;102909.22;;;8.55;100.00
44140;BME280;29803;51.048;4.686;2022-11-11T04:37:47;102909.44;;;8.52;100.00
44140;BME280;29803;51.048;4.686;2022-11-11T04:40:20;102911.16;;;8.53;100.00
44140;BME280;29803;51.048;4.686;2022-11-11T04:43:09;102907.72;;;8.51;100.00
44140;BME280;29803;51.048;4.686;2022-11-11T04:45:40;102900.00;;;8.47;100.00
44140;BME280;29803;51.048;4.686;2022-11-11T04:48:10;102897.63;;;8.42;100.00
44140;BME280;29803;51.048;4.686;2022-11-11T04:50:43;102901.47;;;8.38;100.00
44140;BME280;29803;51.048;4.686;2022-11-11T04:53:14;102900.88;;;8.33;100.00
44140;BME280;29803;51.048;4.686;2022-11-11T04:55:45;102896.78;;;8.27;100.00
44140;BME280;29803;51.048;4.686;2022-11-11T04:58:34;102900.97;;;8.19;100.00
44140;BME280;29803;51.048;4.686;2022-11-11T05:01:04;102896.94;;;8.12;100.00
44140;BME280;29803;51.048;4.686;2022-11-11T05:03:35;102895.66;;;8.04;100.00
44140;BME280;29803;51.048;4.686;2022-11-11T05:06:05;102893.69;;;7.94;100.00
44140;BME280;29803;51.048;4.686;2022-11-11T05:08:54;102904.66;;;7.89;100.00
44140;BME280;29803;51.048;4.686;2022-11-11T05:11:33;102910.19;;;7.86;100.00
44140;BME280;29803;51.048;4.686;2022-11-11T05:14:05;102905.06;;;7.83;100.00
44140;BME280;29803;51.048;4.686;2022-11-11T05:16:56;102911.44;;;7.81;100.00
44140;BME280;29803;51.048;4.686;2022-11-11T05:19:45;102915.06;;;7.79;100.00
44140;BME280;29803;51.048;4.686;2022-11-11T05:22:36;102914.41;;;7.76;100.00
44140;BME280;29803;51.048;4.686;2022-11-11T05:25:09;102916.69;;;7.68;100.00
44140;BME280;29803;51.048;4.686;2022-11-11T05:27:56;102919.97;;;7.59;100.00
44140;BME280;29803;51.048;4.686;2022-11-11T05:30:27;102924.91;;;7.50;100.00
44140;BME280;29803;51.048;4.686;2022-11-11T05:32:57;102916.44;;;7.44;100.00
44140;BME280;29803;51.048;4.686;2022-11-11T05:35:28;102922.25;;;7.36;100.00
44140;BME280;29803;51.048;4.686;2022-11-11T05:38:02;102923.66;;;7.27;100.00
44140;BME280;29803;51.048;4.686;2022-11-11T05:40:50;102927.78;;;7.19;100.00
44140;BME280;29803;51.048;4.686;2022-11-11T05:43:21;102930.78;;;7.13;100.00
44140;BME280;29803;51.048;4.686;2022-11-11T05:45:52;102935.75;;;7.05;100.00
44140;BME280;29803;51.048;4.686;2022-11-11T05:48:22;102934.22;;;7.00;100.00
44140;BME280;29803;51.048;4.686;2022-11-11T05:50:53;102934.59;;;6.94;100.00
44140;BME280;29803;51.048;4.686;2022-11-11T05:53:23;102926.00;;;6.89;100.00
44140;BME280;29803;51.048;4.686;2022-11-11T05:55:53;102935.88;;;6.87;100.00
44140;BME280;29803;51.048;4.686;2022-11-11T05:58:24;102931.50;;;6.86;100.00
44140;BME280;29803;51.048;4.686;2022-11-11T06:00:54;102935.22;;;6.84;100.00
44140;BME280;29803;51.048;4.686;2022-11-11T06:03:25;102928.34;;;6.80;100.00
44140;BME280;29803;51.048;4.686;2022-11-11T06:05:55;102927.66;;;6.76;100.00
44140;BME280;29803;51.048;4.686;2022-11-11T06:08:26;102941.88;;;6.77;100.00
44140;BME280;29803;51.048;4.686;2022-11-11T06:10:56;102935.88;;;6.73;100.00
44140;BME280;29803;51.048;4.686;2022-11-11T06:13:27;102936.22;;;6.67;100.00
44140;BME280;29803;51.048;4.686;2022-11-11T06:15:58;102943.56;;;6.63;100.00
44140;BME280;29803;51.048;4.686;2022-11-11T06:18:29;102945.44;;;6.61;100.00
44140;BME280;29803;51.048;4.686;2022-11-11T06:21:00;102945.44;;;6.61;100.00
44140;BME280;29803;51.048;4.686;2022-11-11T06:23:30;102948.09;;;6.61;100.00
44140;BME280;29803;51.048;4.686;2022-11-11T06:26:01;102948.28;;;6.58;100.00
44140;BME280;29803;51.048;4.686;2022-11-11T06:28:50;102953.53;;;6.60;100.00
44140;BME280;29803;51.048;4.686;2022-11-11T06:31:23;102953.69;;;6.57;100.00
44140;BME280;29803;51.048;4.686;2022-11-11T06:33:54;102946.84;;;6.53;100.00
44140;BME280;29803;51.048;4.686;2022-11-11T06:36:24;102956.88;;;6.47;100.00
44140;BME280;29803;51.048;4.686;2022-11-11T06:38:55;102957.09;;;6.44;100.00
44140;BME280;29803;51.048;4.686;2022-11-11T06:41:25;102958.78;;;6.45;100.00
44140;BME280;29803;51.048;4.686;2022-11-11T06:43:56;102955.28;;;6.45;100.00
44140;BME280;29803;51.048;4.686;2022-11-11T06:46:27;102958.78;;;6.45;100.00
44140;BME280;29803;51.048;4.686;2022-11-11T06:48:57;102964.13;;;6.45;100.00
44140;BME280;29803;51.048;4.686;2022-11-11T06:51:28;102966.09;;;6.42;100.00
44140;BME280;29803;51.048;4.686;2022-11-11T06:53:59;102972.38;;;6.41;100.00
44140;BME280;29803;51.048;4.686;2022-11-11T06:56:30;102965.44;;;6.38;100.00
44140;BME280;29803;51.048;4.686;2022-11-11T06:59:00;102968.38;;;6.34;100.00
44140;BME280;29803;51.048;4.686;2022-11-11T07:01:30;102973.84;;;6.31;100.00
44140;BME280;29803;51.048;4.686;2022-11-11T07:04:01;102973.00;;;6.30;100.00
44140;BME280;29803;51.048;4.686;2022-11-11T07:06:32;102974.91;;;6.28;100.00
44140;BME280;29803;51.048;4.686;2022-11-11T07:09:02;102978.50;;;6.27;100.00
44140;BME280;29803;51.048;4.686;2022-11-11T07:11:33;102977.56;;;6.28;100.00
44140;BME280;29803;51.048;4.686;2022-11-11T07:14:03;102981.00;;;6.30;100.00
44140;BME280;29803;51.048;4.686;2022-11-11T07:16:33;102987.97;;;6.33;100.00
44140;BME280;29803;51.048;4.686;2022-11-11T07:19:04;102986.94;;;6.35;100.00
44140;BME280;29803;51.048;4.686;2022-11-11T07:21:34;102984.97;;;6.39;100.00
44140;BME280;29803;51.048;4.686;2022-11-11T07:24:05;102986.56;;;6.41;100.00
44140;BME280;29803;51.048;4.686;2022-11-11T07:26:35;102990.91;;;6.44;100.00
44140;BME280;29803;51.048;4.686;2022-11-11T07:29:06;102993.47;;;6.45;100.00
44140;BME280;29803;51.048;4.686;2022-11-11T07:31:37;102994.91;;;6.51;100.00
44140;BME280;29803;51.048;4.686;2022-11-11T07:34:08;102999.13;;;6.55;100.00
44140;BME280;29803;51.048;4.686;2022-11-11T07:36:38;102999.63;;;6.62;100.00
44140;BME280;29803;51.048;4.686;2022-11-11T07:39:09;103005.13;;;6.74;100.00
44140;BME280;29803;51.048;4.686;2022-11-11T07:41:39;102999.75;;;6.90;100.00
44140;BME280;29803;51.048;4.686;2022-11-11T07:44:10;103011.59;;;7.00;100.00
44140;BME280;29803;51.048;4.686;2022-11-11T07:46:40;103010.00;;;7.12;100.00
44140;BME280;29803;51.048;4.686;2022-11-11T07:49:11;103005.56;;;7.27;100.00
44140;BME280;29803;51.048;4.686;2022-11-11T07:51:41;103006.47;;;7.42;100.00
44140;BME280;29803;51.048;4.686;2022-11-11T07:54:12;103015.44;;;7.41;100.00
44140;BME280;29803;51.048;4.686;2022-11-11T07:56:42;103015.44;;;7.41;100.00
44140;BME280;29803;51.048;4.686;2022-11-11T07:59:13;103018.41;;;7.50;100.00
44140;BME280;29803;51.048;4.686;2022-11-11T08:01:44;103017.16;;;7.56;100.00
44140;BME280;29803;51.048;4.686;2022-11-11T08:04:15;103017.38;;;7.53;100.00
44140;BME280;29803;51.048;4.686;2022-11-11T08:06:45;103016.13;;;7.59;100.00
44140;BME280;29803;51.048;4.686;2022-11-11T08:09:16;103014.31;;;7.59;100.00
44140;BME280;29803;51.048;4.686;2022-11-11T08:11:46;103020.44;;;7.75;100.00
44140;BME280;29803;51.048;4.686;2022-11-11T08:14:35;103015.94;;;7.76;100.00
44140;BME280;29803;51.048;4.686;2022-11-11T08:17:06;103016.06;;;7.89;100.00
44140;BME280;29803;51.048;4.686;2022-11-11T08:19:36;103021.19;;;8.06;100.00
44140;BME280;29803;51.048;4.686;2022-11-11T08:22:07;103023.38;;;8.14;100.00
44140;BME280;29803;51.048;4.686;2022-11-11T08:24:37;103028.31;;;8.34;100.00
44140;BME280;29803;51.048;4.686;2022-11-11T08:27:08;103010.22;;;8.52;100.00
44140;BME280;29803;51.048;4.686;2022-11-11T08:29:39;103023.06;;;8.74;100.00
44140;BME280;29803;51.048;4.686;2022-11-11T08:32:09;103030.78;;;9.05;100.00
44140;BME280;29803;51.048;4.686;2022-11-11T08:34:40;103033.38;;;9.20;100.00
44140;BME280;29803;51.048;4.686;2022-11-11T08:37:11;103030.75;;;9.45;100.00
44140;BME280;29803;51.048;4.686;2022-11-11T08:39:41;103029.34;;;9.65;100.00
44140;BME280;29803;51.048;4.686;2022-11-11T08:42:12;103022.06;;;9.80;100.00
44140;BME280;29803;51.048;4.686;2022-11-11T08:44:42;103012.13;;;10.19;100.00
44140;BME280;29803;51.048;4.686;2022-11-11T08:47:13;103016.50;;;10.45;100.00
44140;BME280;29803;51.048;4.686;2022-11-11T08:49:44;103024.53;;;10.69;100.00
44140;BME280;29803;51.048;4.686;2022-11-11T08:52:14;103030.59;;;10.84;100.00
44140;BME280;29803;51.048;4.686;2022-11-11T08:54:45;103031.34;;;11.10;100.00
44140;BME280;29803;51.048;4.686;2022-11-11T08:57:15;103030.56;;;11.43;100.00
44140;BME280;29803;51.048;4.686;2022-11-11T08:59:46;103035.50;;;11.60;100.00
44140;BME280;29803;51.048;4.686;2022-11-11T09:02:16;103034.31;;;11.98;100.00
44140;BME280;29803;51.048;4.686;2022-11-11T09:04:47;103033.97;;;11.91;100.00
44140;BME280;29803;51.048;4.686;2022-11-11T09:07:17;103028.06;;;12.31;100.00
44140;BME280;29803;51.048;4.686;2022-11-11T09:09:48;103034.69;;;12.27;100.00
44140;BME280;29803;51.048;4.686;2022-11-11T09:12:19;103026.66;;;12.59;100.00
44140;BME280;29803;51.048;4.686;2022-11-11T09:14:50;103043.00;;;12.35;100.00
44140;BME280;29803;51.048;4.686;2022-11-11T09:17:20;103034.31;;;11.98;100.00
44140;BME280;29803;51.048;4.686;2022-11-11T09:19:51;103034.56;;;12.17;100.00
44140;BME280;29803;51.048;4.686;2022-11-11T09:22:21;103027.19;;;12.42;100.00
44140;BME280;29803;51.048;4.686;2022-11-11T09:24:52;103025.59;;;12.51;100.00
44140;BME280;29803;51.048;4.686;2022-11-11T09:27:23;103044.22;;;12.86;100.00
44140;BME280;29803;51.048;4.686;2022-11-11T09:29:54;103035.25;;;12.96;100.00
44140;BME280;29803;51.048;4.686;2022-11-11T09:32:24;103040.97;;;13.03;100.00
44140;BME280;29803;51.048;4.686;2022-11-11T09:34:55;103049.34;;;12.89;100.00
44140;BME280;29803;51.048;4.686;2022-11-11T09:37:26;103047.34;;;13.02;100.00
44140;BME280;29803;51.048;4.686;2022-11-11T09:39:57;103049.50;;;13.08;100.00
44140;BME280;29803;51.048;4.686;2022-11-11T09:42:47;103051.50;;;12.63;100.00
44140;BME280;29803;51.048;4.686;2022-11-11T09:45:44;103061.19;;;12.54;100.00
44140;BME280;29803;51.048;4.686;2022-11-11T09:48:49;103057.03;;;12.39;100.00
44140;BME280;29803;51.048;4.686;2022-11-11T09:51:21;103050.91;;;12.48;100.00
44140;BME280;29803;51.048;4.686;2022-11-11T09:53:57;103054.13;;;12.42;100.00
44140;BME280;29803;51.048;4.686;2022-11-11T09:56:31;103044.81;;;12.46;100.00
44140;BME280;29803;51.048;4.686;2022-11-11T09:59:13;103047.75;;;12.43;100.00
44140;BME280;29803;51.048;4.686;2022-11-11T10:01:51;103048.47;;;12.34;100.00
44140;BME280;29803;51.048;4.686;2022-11-11T10:10:43;103045.97;;;12.10;100.00
44140;BME280;29803;51.048;4.686;2022-11-11T10:13:16;103060.50;;;11.96;100.00
44140;BME280;29803;51.048;4.686;2022-11-11T10:16:14;103054.13;;;11.97;100.00
44140;BME280;29803;51.048;4.686;2022-11-11T10:18:57;103051.44;;;12.08;100.00
44140;BME280;29803;51.048;4.686;2022-11-11T10:24:12;103050.69;;;12.29;100.00
44140;BME280;29803;51.048;4.686;2022-11-11T10:26:45;103049.22;;;12.25;100.00
44140;BME280;29803;51.048;4.686;2022-11-11T10:29:21;103056.97;;;12.07;100.00
44140;BME280;29803;51.048;4.686;2022-11-11T10:34:35;103058.53;;;12.32;100.00
44140;BME280;29803;51.048;4.686;2022-11-11T10:37:17;103053.97;;;12.43;100.00
44140;BME280;29803;51.048;4.686;2022-11-11T10:42:40;103058.13;;;12.48;100.00
44140;BME280;29803;51.048;4.686;2022-11-11T10:48:02;103051.50;;;12.63;100.00
44140;BME280;29803;51.048;4.686;2022-11-11T10:50:39;103050.50;;;12.75;100.00
44140;BME280;29803;51.048;4.686;2022-11-11T10:53:21;103045.69;;;12.79;100.00
44140;BME280;29803;51.048;4.686;2022-11-11T10:58:59;103042.34;;;13.18;100.00
44140;BME280;29803;51.048;4.686;2022-11-11T11:01:37;103040.44;;;13.41;100.00
44140;BME280;29803;51.048;4.686;2022-11-11T11:04:34;103040.75;;;13.48;100.00
44140;BME280;29803;51.048;4.686;2022-11-11T11:07:09;103030.56;;;13.52;100.00
44140;BME280;29803;51.048;4.686;2022-11-11T11:09:47;103030.44;;;13.53;100.00
44140;BME280;29803;51.048;4.686;2022-11-11T11:12:24;103030.09;;;13.46;100.00
44140;BME280;29803;51.048;4.686;2022-11-11T11:15:03;103026.78;;;13.64;100.00
44140;BME280;29803;51.048;4.686;2022-11-11T11:18:17;103029.00;;;13.80;100.00
44140;BME280;29803;51.048;4.686;2022-11-11T11:20:55;103028.94;;;13.91;100.00
44140;BME280;29803;51.048;4.686;2022-11-11T11:23:40;103022.59;;;14.02;100.00
44140;BME280;29803;51.048;4.686;2022-11-11T11:26:13;103017.22;;;14.11;100.00
44140;BME280;29803;51.048;4.686;2022-11-11T11:31:41;103018.50;;;14.07;100.00
44140;BME280;29803;51.048;4.686;2022-11-11T11:34:12;103021.38;;;14.25;100.00
44140;BME280;29803;51.048;4.686;2022-11-11T11:36:43;103016.72;;;14.37;100.00
44140;BME280;29803;51.048;4.686;2022-11-11T11:39:30;103018.44;;;14.38;100.00
44140;BME280;29803;51.048;4.686;2022-11-11T11:42:01;103019.44;;;14.37;100.00
44140;BME280;29803;51.048;4.686;2022-11-11T11:44:34;103016.22;;;14.53;100.00
44140;BME280;29803;51.048;4.686;2022-11-11T11:50:28;103016.78;;;14.66;100.00
44140;BME280;29803;51.048;4.686;2022-11-11T11:55:43;103016.88;;;14.45;100.00
44140;BME280;29803;51.048;4.686;2022-11-11T11:58:36;103007.34;;;14.31;100.00
44140;BME280;29803;51.048;4.686;2022-11-11T12:01:19;103015.50;;;14.10;100.00
44140;BME280;29803;51.048;4.686;2022-11-11T12:09:45;103008.53;;;14.08;100.00
44140;BME280;29803;51.048;4.686;2022-11-11T12:15:14;103018.25;;;13.89;100.00
44140;BME280;29803;51.048;4.686;2022-11-11T12:20:44;103013.47;;;13.93;100.00
44140;BME280;29803;51.048;4.686;2022-11-11T12:28:38;102997.16;;;14.04;100.00
44140;BME280;29803;51.048;4.686;2022-11-11T12:36:41;102994.34;;;13.75;100.00
44140;BME280;29803;51.048;4.686;2022-11-11T12:39:33;102988.53;;;13.80;100.00
44140;BME280;29803;51.048;4.686;2022-11-11T12:42:33;102990.88;;;13.94;100.00
44140;BME280;29803;51.048;4.686;2022-11-11T12:45:20;102984.84;;;14.11;100.00
44140;BME280;29803;51.048;4.686;2022-11-11T12:54:12;102986.97;;;14.17;100.00
44140;BME280;29803;51.048;4.686;2022-11-11T12:57:03;102987.66;;;14.10;100.00
44140;BME280;29803;51.048;4.686;2022-11-11T13:05:25;102984.56;;;14.24;100.00
44140;BME280;29803;51.048;4.686;2022-11-11T13:16:54;102969.16;;;14.55;100.00
44140;BME280;29803;51.048;4.686;2022-11-11T13:22:14;102968.75;;;14.60;100.00
44140;BME280;29803;51.048;4.686;2022-11-11T13:24:50;102960.94;;;14.57;100.00
44140;BME280;29803;51.048;4.686;2022-11-11T13:35:38;102961.84;;;14.27;100.00
44140;BME280;29803;51.048;4.686;2022-11-11T13:38:23;102961.13;;;14.24;100.00
44140;BME280;29803;51.048;4.686;2022-11-11T13:41:01;102956.84;;;14.12;100.00
44140;BME280;29803;51.048;4.686;2022-11-11T13:43:39;102963.38;;;14.10;100.00
44140;BME280;29803;51.048;4.686;2022-11-11T13:46:30;102964.53;;;14.17;100.00
44140;BME280;29803;51.048;4.686;2022-11-11T13:49:05;102954.44;;;14.19;100.00
44140;BME280;29803;51.048;4.686;2022-11-11T13:51:40;102953.75;;;14.27;100.00
44140;BME280;29803;51.048;4.686;2022-11-11T13:54:30;102957.44;;;14.25;100.00
44140;BME280;29803;51.048;4.686;2022-11-11T13:59:56;102948.19;;;14.18;100.00
44140;BME280;29803;51.048;4.686;2022-11-11T14:12:54;102929.84;;;14.03;100.00
44140;BME280;29803;51.048;4.686;2022-11-11T14:15:36;102932.34;;;13.94;100.00
44140;BME280;29803;51.048;4.686;2022-11-11T14:21:06;102931.81;;;13.91;100.00
44140;BME280;29803;51.048;4.686;2022-11-11T14:23:42;102926.06;;;13.84;100.00
44140;BME280;29803;51.048;4.686;2022-11-11T14:41:53;102928.31;;;13.39;100.00
44140;BME280;29803;51.048;4.686;2022-11-11T14:52:25;102926.34;;;12.78;100.00
44140;BME280;29803;51.048;4.686;2022-11-11T14:57:38;102938.31;;;12.53;100.00
44140;BME280;29803;51.048;4.686;2022-11-11T15:03:08;102923.09;;;12.31;100.00
44140;BME280;29803;51.048;4.686;2022-11-11T15:06:03;102931.31;;;12.18;100.00
44140;BME280;29803;51.048;4.686;2022-11-11T15:20:07;102928.81;;;11.61;100.00
44140;BME280;29803;51.048;4.686;2022-11-11T15:25:46;102924.63;;;11.34;100.00
44140;BME280;29803;51.048;4.686;2022-11-11T15:31:20;102921.91;;;11.12;100.00
44140;BME280;29803;51.048;4.686;2022-11-11T15:34:15;102929.47;;;10.96;100.00
44140;BME280;29803;51.048;4.686;2022-11-11T15:36:55;102920.63;;;10.82;100.00
44140;BME280;29803;51.048;4.686;2022-11-11T15:39:39;102919.75;;;10.71;100.00
44140;BME280;29803;51.048;4.686;2022-11-11T15:42:12;102924.44;;;10.56;100.00
44140;BME280;29803;51.048;4.686;2022-11-11T15:44:48;102921.41;;;10.36;100.00
44140;BME280;29803;51.048;4.686;2022-11-11T15:47:20;102934.31;;;10.19;100.00
44140;BME280;29803;51.048;4.686;2022-11-11T15:49:54;102934.50;;;10.04;100.00
44140;BME280;29803;51.048;4.686;2022-11-11T15:52:33;102928.31;;;9.91;100.00
44140;BME280;29803;51.048;4.686;2022-11-11T15:55:19;102938.13;;;9.79;100.00
44140;BME280;29803;51.048;4.686;2022-11-11T15:57:50;102930.47;;;9.73;100.00
44140;BME280;29803;51.048;4.686;2022-11-11T16:00:25;102933.72;;;9.66;100.00
44140;BME280;29803;51.048;4.686;2022-11-11T16:02:56;102937.59;;;9.62;100.00
44140;BME280;29803;51.048;4.686;2022-11-11T16:05:29;102929.22;;;9.53;100.00